AirNav   Everest Fuels
 
 1256 users online  

PA27 Butz Heliport
Allentown, Pennsylvania, USA

GOING TO ALLENTOWN?


FAA INFORMATION EFFECTIVE 05 DECEMBER 2019

Location

FAA Identifier: PA27
Lat/Long: 40-36-15.3470N 075-33-43.6680W
40-36.255783N 075-33.727800W
40.6042631,-75.5621300
(estimated)
Elevation: 454 ft. / 138 m (estimated)
Variation: 11W (1985)
From city: 6 miles NW of ALLENTOWN, PA
Time zone: UTC -5 (UTC -4 during Daylight Saving Time)
Zip code: 18104

Heliport Operations

Heliport use: Private use, PRIOR PERMISSION; BRIEFINGS REQUIRED, PHONE 215-398-2988.
Activation date: 01/1977
Control tower: no
ARTCC: NEW YORK CENTER
FSS: WILLIAMSPORT FLIGHT SERVICE STATION
Attendance: MON-FRI 0800-1700
Wind indicator: lighted
Segmented circle: no
Lights: ACTVT PERIMETER LGTS - 123.075.

Heliport Communications

UNICOM: 123.075
WX AWOS-3 at XLL (4 nm SE): 127.875 (610-231-3111)
WX ASOS at ABE (6 nm NE): PHONE 610-266-3579
WX AWOS-3 at UKT (13 nm SE): 119.475 (215-538-7610)
WX AWOS-3PT at 22N (15 nm NW): 119.350 (570-386-3423)
WX AWOS-3 at CKZ (18 nm SE): 126.325 (215-257-7291)

Nearby radio navigation aids

VOR radial/distance  VOR name  Freq  Var
ETXr085/5.7EAST TEXAS VOR/DME110.2009W
FJCr224/8.8ALLENTOWN VORTAC117.5010W
PTWr009/22.9POTTSTOWN VORTAC116.5009W
BWZr262/35.6BROADWAY VOR/DME114.2011W
ARDr315/36.6YARDLEY VOR/DME108.2010W
SBJr282/37.4SOLBERG VOR/DME112.9010W
STWr244/39.3STILLWATER VOR/DME109.6011W

 
NDB name  Hdg/Dist  Freq  Var  ID
AMBLER348/31.427512WING .. -. --.

Heliport Services

Runway Information

Helipad H1

Dimensions: 35 x 35 ft. / 11 x 11 m
Surface: concrete, in fair condition
Runway edge lights: PERI
Latitude: 40-36.255783N
Longitude: 075-33.727800W
Elevation: 454.0 ft.
Traffic pattern: leftleft
Markings: none, in fair condition
Obstructions: wires, 1320 ft. from runway
WIRES N AND W OF HELIPAD.

Heliport Ownership and Management from official FAA records

Ownership: Privately-owned
Owner: ALVIN H. BUTZ INC.
PO BOX 509
ALLENTOWN, PA 18105
Phone 215-395-6871
Manager: ANNE EPISCOPO
PO BOX 509
ALLENTOWN, PA 18105
Phone 215-398-2988

Heliport Operational Statistics

Aircraft based on the field: 1
Helicopters: 1
    

Additional Remarks

A33 ROOFTOP.
FOR CD CTC ALLENTOWN APCH AT 800-728-6322.

Instrument Procedures

There are no published instrument procedures at PA27.

Some nearby airports with instrument procedures:

KXLL - Allentown Queen City Municipal Airport (4 nm SE)
KABE - Lehigh Valley International Airport (6 nm NE)
KUKT - Quakertown Airport (13 nm SE)
22N - Jake Arner Memorial Airport (15 nm NW)
N43 - Braden Airpark (17 nm NE)
KCKZ - Pennridge Airport (18 nm SE)
 
Loc | Ops | Rwys | IFR | FBO | Links
Com | Nav | Svcs | Stats | Notes
Area around PA27 (Butz Heliport)
 
Road maps at: MapQuest Bing Google
 
Aerial photo
No photo
 
Sectional chart

 
Airport distance calculator
Flying to Butz Heliport? Find the distance to fly.

From to PA27

Sunrise and sunset
Times for 11-Dec-2019
 Local
(UTC-5)
 Zulu
(UTC)
Morning civil twilight06:4611:46
Sunrise07:1712:17
Sunset16:3421:34
Evening civil twilight17:0522:05

Current date and time
Zulu (UTC)  11-Dec-2019 21:13:43
Local (UTC-5)  11-Dec-2019 16:13:43
 
METAR
KXLL 
4nm SE 
112055Z AUTO 25008G16KT 10SM CLR 02/M07 A3030 RMK AO2
KABE 
6nm NE 
112051Z 25011KT 10SM CLR 03/M08 A3028 RMK AO2 SLP258 T00281078 53010
KUKT 
13nm SE 
112100Z AUTO 24008G13KT 10SM CLR 02/M09 A3030 RMK A01
K22N 
15nm NW 
112056Z AUTO 27006G17KT 10SM CLR 01/M09 A3030 RMK AO2
KCKZ 
18nm SE 
112055Z AUTO 25008KT 10SM CLR 01/M08 A3030 RMK AO2
TAF
KABE 
6nm NE 
111725Z 1118/1218 26010G18KT P6SM SCT045 FM112300 30005KT P6SM SKC FM121200 VRB03KT P6SM SKC
NOTAMs
Click for the latest NOTAMs
NOTAMs are issued by the DoD/FAA and will open in a separate window not controlled by AirNav.

 

 
 

Would you like to see your business listed on this page?

 If your business provides an interesting product or service to pilots, flight crews, aircraft, or users of the Butz Heliport, you should consider listing it here.  To start the listing process, click on the button below
 
Add a business
 

Other Pages about Butz Heliport

Update a link
 
Copyright © AirNav, LLC. All rights reserved. Privacy Policy  Contact